Denver, CO (80236)

3:57 PM MDT on July 27, 2016 (GMT -0600)
Loretto Heights | | Change Station

Elev 5476 ft 39.66 °N, 105.03 °W | Updated 41 seconds ago

Partly Cloudy
Partly Cloudy
93.4 °F
Feels Like 91 °F
N
1.0
Wind Variable Wind from SSE
Gusts 2.0 mph

Today
High -- | Low -- °F
--% Chance of Precip.
Yesterday
High -- | Low -- °F
Precip. -- in
Pressure 29.93 in
Visibility 10.0 miles
Clouds Few 12000 ft
Few 24000 ft
Heat Index 91 °F
Dew Point 52 °F
Humidity 25%
Rainfall 0.00 in
Snow Depth Not available.
5:55 AM 8:17 PM
Last Quarter, 39% visible
METAR KAPA 272153Z 06007KT 040V100 10SM FEW120 FEW240 32/04 A3017 RMK AO2 SLP134 TCU DSNT SE T03220039
Pressure 29.93 in
Visibility 10.0 miles
Clouds Few 12000 ft
Few 24000 ft
Heat Index 91 °F
Dew Point 52 °F
Humidity 25%
Rainfall 0.00 in
Snow Depth Not available.
5:55 AM 8:17 PM
Last Quarter, 39% visible
METAR KAPA 272153Z 06007KT 040V100 10SM FEW120 FEW240 32/04 A3017 RMK AO2 SLP134 TCU DSNT SE T03220039

10-Day Weather Forecast

Almanac

Astronomy

Jul. 27, 2016 Rise Set
Actual Time
Civil Twilight
Nautical Twilight
Astronomical Twilight
Moon
Length of Visible Light
Length of Day
Tomorrow will be .
, % of the Moon is Illuminated

Today's Extremes

State Highs State Lows

Community

WunderPhotos

Upload Photos

1,927,944 photos uploaded!

WunderBlog® & News

Nearby

Air Quality

  Air Quality AQ Index Pollutant
Not available.

Snow Depth

Station Depth Elevation

Earthquake Activity

City Distance Mag. Time & Date
Minimum magnitude displayed is 2.5.

Coastal Water Temperatures

Place Temperature

Stations

Nearby Weather Stations

Station Location Temp. Windchill Dew Point Humidity Wind Precip. Elev Updated Type
                   

Watches & Warnings

There are currently no watches in effect.